createdAt,value
2023-10-20T00:00:55.584Z,4.61
2023-10-20T00:01:57.817Z,4.58
2023-10-20T00:02:59.941Z,4.57
2023-10-20T00:04:04.839Z,4.57
2023-10-20T00:05:07.396Z,4.57
2023-10-20T00:06:10.163Z,4.56
2023-10-20T00:07:12.681Z,4.57
2023-10-20T00:08:14.656Z,4.57
2023-10-20T00:09:17.134Z,4.55
2023-10-20T00:10:19.250Z,4.56
2023-10-20T00:11:21.491Z,4.54
2023-10-20T00:12:23.584Z,4.56
2023-10-20T00:13:26.362Z,4.55
2023-10-20T00:14:28.406Z,4.54
2023-10-20T00:15:30.670Z,4.55
2023-10-20T00:16:32.685Z,4.54
2023-10-20T00:17:34.992Z,4.60
2023-10-20T00:18:37.149Z,4.62
2023-10-20T00:19:39.830Z,4.63
2023-10-20T00:20:42.015Z,4.62
2023-10-20T00:21:46.698Z,4.64
2023-10-20T00:22:48.984Z,4.65
2023-10-20T00:23:51.360Z,4.65
2023-10-20T00:24:53.496Z,4.64
2023-10-20T00:25:55.759Z,4.62
2023-10-20T00:26:58.448Z,4.61
2023-10-20T00:28:00.817Z,4.63
2023-10-20T00:29:03.068Z,4.66
2023-10-20T00:30:08.866Z,4.66
2023-10-20T00:31:12.748Z,4.66
2023-10-20T00:32:14.968Z,4.67
2023-10-20T00:33:17.298Z,4.65
2023-10-20T00:34:20.080Z,4.65
2023-10-20T00:35:22.608Z,4.65
2023-10-20T00:36:24.877Z,4.66
2023-10-20T00:37:27.314Z,4.67
2023-10-20T00:38:29.585Z,4.66
2023-10-20T00:39:31.693Z,4.65
2023-10-20T00:40:33.893Z,4.66
2023-10-20T00:41:38.259Z,4.62
2023-10-20T00:42:40.899Z,4.62
2023-10-20T00:43:42.923Z,4.62
2023-10-20T00:44:45.176Z,4.61
2023-10-20T00:45:48.231Z,4.61
2023-10-20T00:46:50.431Z,4.62
2023-10-20T00:47:52.748Z,4.63
2023-10-20T00:48:55.099Z,4.63
2023-10-20T00:49:58.919Z,4.63
2023-10-20T00:51:02.415Z,4.64
2023-10-20T00:52:04.964Z,4.65
2023-10-20T00:53:08.803Z,4.65
2023-10-20T00:54:14.786Z,4.64
2023-10-20T00:55:17.468Z,4.65
2023-10-20T00:56:19.907Z,4.65
2023-10-20T00:57:23.296Z,4.62
2023-10-20T00:58:27.200Z,4.61
2023-10-20T00:59:29.832Z,4.58
2023-10-20T01:00:31.947Z,4.57
2023-10-20T01:01:34.989Z,4.54
2023-10-20T01:02:38.373Z,4.52
2023-10-20T01:03:41.209Z,4.51
2023-10-20T01:04:43.561Z,4.51
2023-10-20T01:05:46.237Z,4.48
2023-10-20T01:08:18.454Z,4.48
2023-10-20T01:09:25.780Z,4.51
2023-10-20T01:10:27.973Z,4.50
2023-10-20T01:11:31.405Z,4.51
2023-10-20T01:12:36.938Z,4.52
2023-10-20T01:13:39.270Z,4.52
2023-10-20T01:14:41.346Z,4.52
2023-10-20T01:15:43.885Z,4.57
2023-10-20T01:16:45.863Z,4.60
2023-10-20T01:17:48.071Z,4.60
2023-10-20T01:18:51.152Z,4.60
2023-10-20T01:19:53.317Z,4.58
2023-10-20T01:20:56.317Z,4.57
2023-10-20T01:21:58.498Z,4.56
2023-10-20T01:23:00.944Z,4.55
2023-10-20T01:24:06.081Z,4.57
2023-10-20T01:25:08.392Z,4.56
2023-10-20T01:26:10.721Z,4.57
2023-10-20T01:27:12.748Z,4.57
2023-10-20T01:28:14.815Z,4.55
2023-10-20T01:29:16.733Z,4.57
2023-10-20T01:30:18.818Z,4.60
2023-10-20T01:31:20.817Z,4.61
2023-10-20T01:32:22.919Z,4.64
2023-10-20T01:33:24.996Z,4.67
2023-10-20T01:34:27.054Z,4.69
2023-10-20T01:35:29.408Z,4.75
2023-10-20T01:36:32.313Z,4.75
2023-10-20T01:37:34.552Z,4.78
2023-10-20T01:38:37.250Z,4.75
2023-10-20T01:39:46.176Z,4.76
2023-10-20T01:40:48.290Z,4.77
2023-10-20T01:41:50.487Z,4.75
2023-10-20T01:42:52.579Z,4.74
2023-10-20T01:43:54.786Z,4.73
2023-10-20T01:44:56.859Z,4.71
2023-10-20T01:45:58.986Z,4.69
2023-10-20T01:47:01.410Z,4.68
2023-10-20T01:48:03.585Z,4.68
2023-10-20T01:49:06.879Z,4.69
2023-10-20T01:50:09.813Z,4.69
2023-10-20T01:51:12.983Z,4.68
2023-10-20T01:52:15.100Z,4.70
2023-10-20T01:53:17.220Z,4.71
2023-10-20T01:54:19.212Z,4.68
2023-10-20T01:55:21.547Z,4.69
2023-10-20T01:56:23.625Z,4.66
2023-10-20T01:57:25.988Z,4.64
2023-10-20T01:58:27.994Z,4.64
2023-10-20T01:59:30.470Z,4.68
2023-10-20T02:00:32.783Z,4.69
2023-10-20T02:01:35.170Z,4.67
2023-10-20T02:02:37.293Z,4.66
2023-10-20T02:03:39.639Z,4.64
2023-10-20T02:04:42.558Z,4.63
2023-10-20T02:05:44.929Z,4.63
2023-10-20T02:06:47.041Z,4.62
2023-10-20T02:07:49.560Z,4.65
2023-10-20T02:08:51.604Z,4.64
2023-10-20T02:09:53.762Z,4.65
2023-10-20T02:10:55.773Z,4.65
2023-10-20T02:12:00.903Z,4.64
2023-10-20T02:13:04.290Z,4.61
2023-10-20T02:14:07.418Z,4.59
2023-10-20T02:15:09.988Z,4.59
2023-10-20T02:16:13.416Z,4.59
2023-10-20T02:17:16.070Z,4.63
2023-10-20T02:18:18.877Z,4.64
2023-10-20T02:19:20.915Z,4.66
2023-10-20T02:20:24.889Z,4.64
2023-10-20T02:21:27.013Z,4.63
2023-10-20T02:22:29.323Z,4.63
2023-10-20T02:23:32.545Z,4.61
2023-10-20T02:24:34.906Z,4.59
2023-10-20T02:25:37.812Z,4.60
2023-10-20T02:26:39.994Z,4.62
2023-10-20T02:27:43.910Z,4.60
2023-10-20T02:28:46.114Z,4.64
2023-10-20T02:29:48.142Z,4.63
2023-10-20T02:30:50.255Z,4.64
2023-10-20T02:31:52.232Z,4.65
2023-10-20T02:32:56.061Z,4.66
2023-10-20T02:33:58.180Z,4.67
2023-10-20T02:35:00.324Z,4.68
2023-10-20T02:36:02.646Z,4.72
2023-10-20T02:37:04.870Z,4.73
2023-10-20T02:38:06.932Z,4.73
2023-10-20T02:39:08.988Z,4.72
2023-10-20T02:40:12.103Z,4.71
2023-10-20T02:41:15.562Z,4.70
2023-10-20T02:42:17.637Z,4.68
2023-10-20T02:43:20.362Z,4.68
2023-10-20T02:44:23.616Z,4.68
2023-10-20T02:45:25.704Z,4.67
2023-10-20T02:46:27.683Z,4.67
2023-10-20T02:47:29.947Z,4.66
2023-10-20T02:48:32.272Z,4.63
2023-10-20T02:49:34.358Z,4.62
2023-10-20T02:50:36.898Z,4.59
2023-10-20T02:51:39.193Z,4.58
2023-10-20T02:52:41.205Z,4.56
2023-10-20T02:53:46.185Z,4.57
2023-10-20T02:54:48.814Z,4.60
2023-10-20T02:55:51.093Z,4.58
2023-10-20T02:56:53.264Z,4.61
2023-10-20T02:57:55.479Z,4.59
2023-10-20T02:58:57.580Z,4.59
2023-10-20T02:59:59.750Z,4.59
2023-10-20T03:01:04.207Z,4.60
2023-10-20T03:02:06.360Z,4.61
2023-10-20T03:03:09.712Z,4.61
2023-10-20T03:04:12.101Z,4.62
2023-10-20T03:05:14.315Z,4.60
2023-10-20T03:06:16.425Z,4.60
2023-10-20T03:07:22.313Z,4.59
2023-10-20T03:08:24.655Z,4.57
2023-10-20T03:09:27.341Z,4.56
2023-10-20T03:10:29.463Z,4.56
2023-10-20T03:11:31.698Z,4.57
2023-10-20T03:12:33.822Z,4.56
2023-10-20T03:13:36.432Z,4.55
2023-10-20T03:14:38.565Z,4.56
2023-10-20T03:15:41.721Z,4.56
2023-10-20T03:16:46.730Z,4.56
2023-10-20T03:17:48.823Z,4.55
2023-10-20T03:18:50.949Z,4.56
2023-10-20T03:19:52.997Z,4.57
2023-10-20T03:20:55.222Z,4.58
2023-10-20T03:21:57.298Z,4.56
2023-10-20T03:22:59.876Z,4.58
2023-10-20T03:24:01.907Z,4.57
2023-10-20T03:25:04.985Z,4.58
2023-10-20T03:26:12.222Z,4.59
2023-10-20T03:27:14.571Z,4.56
2023-10-20T03:28:16.922Z,4.57
2023-10-20T03:29:19.150Z,4.57
2023-10-20T03:30:21.345Z,4.57
2023-10-20T03:31:23.635Z,4.57
2023-10-20T03:32:26.057Z,4.59
2023-10-20T03:33:28.428Z,4.61
2023-10-20T03:34:33.605Z,4.69
2023-10-20T03:35:35.940Z,4.73
2023-10-20T03:36:37.929Z,4.76
2023-10-20T03:37:39.974Z,4.78
2023-10-20T03:38:42.271Z,4.78
2023-10-20T03:39:44.855Z,4.77
2023-10-20T03:40:47.735Z,4.76
2023-10-20T03:41:52.847Z,4.77
2023-10-20T03:42:54.902Z,4.77
2023-10-20T03:43:56.914Z,4.79
2023-10-20T03:44:59.442Z,4.83
2023-10-20T03:46:01.655Z,4.81
2023-10-20T03:47:06.337Z,4.81
2023-10-20T03:48:10.926Z,4.81
2023-10-20T03:49:13.992Z,4.80
2023-10-20T03:50:17.456Z,4.80
2023-10-20T03:51:19.688Z,4.79
2023-10-20T03:52:24.762Z,4.79
2023-10-20T03:53:34.223Z,4.79
2023-10-20T03:54:36.364Z,4.80
2023-10-20T03:55:38.302Z,4.82
2023-10-20T03:56:40.899Z,4.81
2023-10-20T03:57:46.502Z,4.81
2023-10-20T03:58:48.509Z,4.79
2023-10-20T03:59:50.474Z,4.79
2023-10-20T04:01:03.077Z,4.79
2023-10-20T04:02:05.456Z,4.80
2023-10-20T04:03:07.820Z,4.83
2023-10-20T04:04:13.233Z,4.84
2023-10-20T04:05:16.531Z,4.84
2023-10-20T04:06:18.919Z,4.86
2023-10-20T04:07:22.695Z,4.86
2023-10-20T04:08:25.810Z,4.93
2023-10-20T04:09:30.556Z,4.96
2023-10-20T04:10:34.317Z,5.01
2023-10-20T04:11:37.372Z,5.02
2023-10-20T04:12:43.225Z,5.03
2023-10-20T04:13:46.012Z,4.99
2023-10-20T04:14:48.191Z,4.97
2023-10-20T04:15:51.230Z,4.96
2023-10-20T04:16:53.241Z,4.95
2023-10-20T04:17:56.500Z,4.95
2023-10-20T04:18:59.833Z,4.96
2023-10-20T04:20:04.052Z,4.98
2023-10-20T04:21:06.434Z,5.02
2023-10-20T04:22:14.358Z,5.00
2023-10-20T04:23:19.725Z,4.98
2023-10-20T04:24:23.131Z,4.96
2023-10-20T04:25:25.161Z,4.94
2023-10-20T04:26:28.154Z,4.95
2023-10-20T04:27:46.902Z,4.98
2023-10-20T04:28:52.403Z,4.99
2023-10-20T04:30:13.257Z,4.98
2023-10-20T04:31:36.615Z,4.99
2023-10-20T04:32:59.333Z,4.98
2023-10-20T04:34:19.991Z,4.95
2023-10-20T04:35:40.990Z,4.94
2023-10-20T04:37:01.994Z,4.94
2023-10-20T04:38:36.565Z,4.96
2023-10-20T04:39:56.893Z,4.96
2023-10-20T04:41:17.743Z,4.96
2023-10-20T04:42:22.617Z,4.94
2023-10-20T04:43:43.465Z,4.95
2023-10-20T04:45:04.128Z,4.92
2023-10-20T04:46:29.977Z,4.90
2023-10-20T04:47:41.120Z,4.91
2023-10-20T04:48:58.478Z,4.95
2023-10-20T04:50:20.343Z,5.01
2023-10-20T04:51:40.994Z,5.07
2023-10-20T04:52:48.599Z,5.14
2023-10-20T04:53:54.832Z,5.15
2023-10-20T04:55:19.572Z,5.15
2023-10-20T04:56:38.808Z,5.15
2023-10-20T04:57:59.362Z,5.12
2023-10-20T04:59:07.146Z,5.09
2023-10-20T05:00:12.072Z,5.08
2023-10-20T05:01:42.470Z,5.06
2023-10-20T05:03:14.414Z,5.07
2023-10-20T05:04:25.617Z,5.10
2023-10-20T05:05:27.643Z,5.10
2023-10-20T05:06:44.061Z,5.11
2023-10-20T05:07:51.332Z,5.11
2023-10-20T05:08:54.506Z,5.12
2023-10-20T05:09:56.601Z,5.12
2023-10-20T05:10:58.642Z,5.14
2023-10-20T05:12:02.058Z,5.14
2023-10-20T05:13:04.078Z,5.14
2023-10-20T05:14:06.237Z,5.17
2023-10-20T05:15:11.752Z,5.19
2023-10-20T05:16:13.789Z,5.28
2023-10-20T05:17:17.370Z,5.35
2023-10-20T05:18:19.343Z,5.39
2023-10-20T05:19:21.416Z,5.40
2023-10-20T05:20:24.359Z,5.41
2023-10-20T05:21:26.790Z,5.41
2023-10-20T05:22:30.073Z,5.43
2023-10-20T05:23:32.029Z,5.47
2023-10-20T05:24:34.263Z,5.47
2023-10-20T05:25:36.501Z,5.49
2023-10-20T05:26:38.512Z,5.50
2023-10-20T05:27:41.317Z,5.51
2023-10-20T05:28:43.190Z,5.53
2023-10-20T05:29:46.418Z,5.51
2023-10-20T05:30:48.451Z,5.50
2023-10-20T05:31:52.183Z,5.47
2023-10-20T05:32:54.469Z,5.50
2023-10-20T05:33:56.752Z,5.44
2023-10-20T05:35:00.380Z,5.41
2023-10-20T05:36:05.846Z,5.41
2023-10-20T05:37:08.139Z,5.43
2023-10-20T05:38:10.858Z,5.42
2023-10-20T05:39:15.589Z,5.42
2023-10-20T05:40:17.784Z,5.39
2023-10-20T05:41:19.670Z,5.40
2023-10-20T05:42:21.654Z,5.39
2023-10-20T05:43:24.519Z,5.40
2023-10-20T05:44:26.863Z,5.45
2023-10-20T05:45:34.004Z,5.44
2023-10-20T05:46:38.837Z,5.47
2023-10-20T05:47:40.956Z,5.47
2023-10-20T05:48:43.145Z,5.49
2023-10-20T05:49:45.333Z,5.48
2023-10-20T05:50:47.584Z,5.47
2023-10-20T05:51:52.816Z,5.43
2023-10-20T05:52:54.900Z,5.41
2023-10-20T05:53:56.776Z,5.40
2023-10-20T05:55:00.879Z,5.38
2023-10-20T05:56:02.834Z,5.39
2023-10-20T05:57:04.931Z,5.39
2023-10-20T05:58:07.616Z,5.41
2023-10-20T05:59:10.972Z,5.41
2023-10-20T06:00:15.286Z,5.43
2023-10-20T06:01:19.712Z,5.45
2023-10-20T06:02:22.063Z,5.46
2023-10-20T06:03:24.329Z,5.49
2023-10-20T06:04:27.102Z,5.50
2023-10-20T06:05:30.027Z,5.53
2023-10-20T06:06:32.920Z,5.57
2023-10-20T06:07:34.933Z,5.59
2023-10-20T06:08:37.223Z,5.58
2023-10-20T06:09:39.269Z,5.59
2023-10-20T06:10:43.681Z,5.57
2023-10-20T06:11:45.716Z,5.57
2023-10-20T06:12:47.665Z,5.56
2023-10-20T06:13:50.927Z,5.56
2023-10-20T06:14:53.158Z,5.60
2023-10-20T06:15:55.476Z,5.64
2023-10-20T06:16:57.726Z,5.71
2023-10-20T06:17:59.888Z,5.76
2023-10-20T06:19:01.957Z,5.78
2023-10-20T06:20:07.883Z,5.79
2023-10-20T06:21:18.604Z,5.77
2023-10-20T06:22:20.944Z,5.76
2023-10-20T06:23:22.993Z,5.76
2023-10-20T06:24:25.465Z,5.79
2023-10-20T06:25:27.398Z,5.78
2023-10-20T06:26:29.451Z,5.80
2023-10-20T06:27:31.450Z,5.81
2023-10-20T06:28:33.821Z,5.82
2023-10-20T06:29:35.876Z,5.80
2023-10-20T06:30:44.538Z,5.80
2023-10-20T06:31:48.903Z,5.79
2023-10-20T06:32:57.921Z,5.79
2023-10-20T06:34:18.568Z,5.83
2023-10-20T06:35:20.641Z,5.93
2023-10-20T06:36:27.532Z,5.99
2023-10-20T06:37:31.378Z,6.00
2023-10-20T06:38:42.473Z,6.00
2023-10-20T06:39:44.933Z,6.05
2023-10-20T06:40:48.490Z,6.08
2023-10-20T06:41:50.563Z,6.11
2023-10-20T06:42:52.504Z,6.16
2023-10-20T06:43:54.667Z,6.17
2023-10-20T06:44:56.797Z,6.19
2023-10-20T06:46:02.403Z,6.21
2023-10-20T06:47:04.314Z,6.17
2023-10-20T06:48:06.796Z,6.12
2023-10-20T06:49:08.789Z,6.09
2023-10-20T06:50:12.435Z,6.08
2023-10-20T06:51:14.389Z,6.09
2023-10-20T06:52:19.499Z,6.09
2023-10-20T06:53:21.531Z,6.06
2023-10-20T06:54:23.551Z,6.06
2023-10-20T06:55:54.345Z,6.05
2023-10-20T06:56:48.149Z,6.04
2023-10-20T06:57:50.213Z,6.04
2023-10-20T06:58:52.464Z,6.05
2023-10-20T06:59:54.454Z,6.10
2023-10-20T07:00:56.676Z,6.15
2023-10-20T07:02:01.763Z,6.15
2023-10-20T07:03:04.155Z,6.18
2023-10-20T07:04:10.120Z,6.24
2023-10-20T07:05:12.283Z,6.29
2023-10-20T07:06:14.397Z,6.33
2023-10-20T07:07:19.247Z,6.33
2023-10-20T07:08:21.274Z,6.33
2023-10-20T07:09:23.455Z,6.32
2023-10-20T07:10:25.411Z,6.31
2023-10-20T07:11:28.695Z,6.31
2023-10-20T07:12:30.762Z,6.32
2023-10-20T07:13:33.448Z,6.34
2023-10-20T07:14:35.916Z,6.40
2023-10-20T07:15:40.188Z,6.46
2023-10-20T07:16:42.006Z,6.57
2023-10-20T07:17:44.098Z,6.54
2023-10-20T07:18:46.172Z,6.52
2023-10-20T07:19:48.282Z,6.49
2023-10-20T07:20:50.358Z,6.47
2023-10-20T07:21:56.246Z,6.49
2023-10-20T07:22:58.562Z,6.51
2023-10-20T07:24:01.311Z,6.56
2023-10-20T07:25:04.670Z,6.61
2023-10-20T07:26:06.995Z,6.64
2023-10-20T07:27:09.047Z,6.66
2023-10-20T07:28:11.310Z,6.63
2023-10-20T07:29:13.665Z,6.67
2023-10-20T07:30:18.342Z,6.69
2023-10-20T07:31:23.262Z,6.67
2023-10-20T07:32:26.487Z,6.68
2023-10-20T07:33:28.721Z,6.68
2023-10-20T07:34:30.638Z,6.68
2023-10-20T07:35:33.598Z,6.68
2023-10-20T07:36:35.958Z,6.68
2023-10-20T07:37:37.979Z,6.65
2023-10-20T07:38:40.531Z,6.65
2023-10-20T07:39:42.641Z,6.63
2023-10-20T07:40:44.641Z,6.58
2023-10-20T07:41:47.120Z,6.59
2023-10-20T07:42:49.096Z,6.53
2023-10-20T07:43:51.226Z,6.45
2023-10-20T07:44:53.261Z,6.42
2023-10-20T07:45:55.449Z,6.39
2023-10-20T07:46:57.626Z,6.39
2023-10-20T07:48:01.896Z,6.39
2023-10-20T07:49:04.628Z,6.38
2023-10-20T07:50:07.824Z,6.35
2023-10-20T07:51:10.237Z,6.35
2023-10-20T07:52:12.440Z,6.36
2023-10-20T07:53:14.404Z,6.37
2023-10-20T07:54:16.429Z,6.40
2023-10-20T07:55:18.313Z,6.40
2023-10-20T07:56:21.291Z,6.39
2023-10-20T07:57:25.012Z,6.38
2023-10-20T07:58:27.152Z,6.38
2023-10-20T07:59:30.240Z,6.40
2023-10-20T08:00:32.472Z,6.42
2023-10-20T08:01:34.472Z,6.43
2023-10-20T08:02:36.610Z,6.44
2023-10-20T08:03:38.963Z,6.45
2023-10-20T08:04:44.357Z,6.46
2023-10-20T08:05:46.702Z,6.49
2023-10-20T08:06:49.414Z,6.49
2023-10-20T08:07:51.587Z,6.50
2023-10-20T08:08:53.813Z,6.48
2023-10-20T08:09:55.970Z,6.49
2023-10-20T08:10:57.996Z,6.50
2023-10-20T08:12:00.568Z,6.49
2023-10-20T08:13:03.877Z,6.50
2023-10-20T08:14:06.482Z,6.51
2023-10-20T08:15:09.778Z,6.57
2023-10-20T08:16:11.886Z,6.60
2023-10-20T08:17:13.906Z,6.62
2023-10-20T08:18:15.875Z,6.62
2023-10-20T08:19:17.919Z,6.63
2023-10-20T08:20:20.000Z,6.68
2023-10-20T08:21:27.517Z,6.68
2023-10-20T08:22:29.398Z,6.70
2023-10-20T08:23:31.725Z,6.68
2023-10-20T08:24:34.232Z,6.65
2023-10-20T08:25:39.580Z,6.63
2023-10-20T08:26:42.465Z,6.62
2023-10-20T08:27:49.229Z,6.60
2023-10-20T08:28:51.632Z,6.59
2023-10-20T08:29:58.064Z,6.57
2023-10-20T08:31:08.646Z,6.57
2023-10-20T08:32:10.676Z,6.55
2023-10-20T08:33:13.383Z,6.55
2023-10-20T08:34:15.823Z,6.55
2023-10-20T08:35:17.786Z,6.54
2023-10-20T08:36:21.898Z,6.55
2023-10-20T08:37:23.903Z,6.56
2023-10-20T08:38:28.756Z,6.57
2023-10-20T08:39:32.172Z,6.59
2023-10-20T08:40:41.795Z,6.64
2023-10-20T08:41:48.604Z,6.66
2023-10-20T08:42:50.732Z,6.68
2023-10-20T08:43:53.409Z,6.72
2023-10-20T08:44:55.738Z,6.75
2023-10-20T08:45:57.763Z,6.80
2023-10-20T08:47:00.556Z,6.84
2023-10-20T08:48:04.768Z,6.85
2023-10-20T08:49:08.710Z,6.87
2023-10-20T08:50:11.376Z,6.86
2023-10-20T08:51:17.646Z,6.87
2023-10-20T08:52:20.656Z,6.86
2023-10-20T08:53:23.658Z,6.84
2023-10-20T08:54:26.529Z,6.85
2023-10-20T08:55:28.801Z,6.86
2023-10-20T08:56:30.836Z,6.87
2023-10-20T08:57:32.955Z,6.89
2023-10-20T08:58:35.085Z,6.93
2023-10-20T08:59:37.758Z,6.99
2023-10-20T09:00:47.344Z,7.01
2023-10-20T09:01:57.719Z,7.04
2023-10-20T09:03:00.922Z,7.05
2023-10-20T09:04:06.172Z,7.04
2023-10-20T09:05:10.362Z,7.03
2023-10-20T09:06:15.715Z,7.03
2023-10-20T09:07:18.273Z,7.01
2023-10-20T09:08:20.366Z,6.98
2023-10-20T09:09:22.990Z,6.95
2023-10-20T09:10:25.554Z,6.94
2023-10-20T09:11:32.214Z,6.93
2023-10-20T09:12:35.649Z,6.93
2023-10-20T09:13:41.409Z,6.89
2023-10-20T09:14:43.706Z,6.88
2023-10-20T09:15:45.776Z,6.87
2023-10-20T09:16:48.498Z,6.88
2023-10-20T09:17:55.142Z,6.89
2023-10-20T09:18:58.327Z,6.92
2023-10-20T09:20:07.914Z,6.93
2023-10-20T09:21:10.139Z,6.93
2023-10-20T09:22:12.033Z,6.93
2023-10-20T09:23:14.289Z,6.95
2023-10-20T09:24:18.624Z,6.97
2023-10-20T09:25:21.489Z,7.00
2023-10-20T09:26:25.614Z,7.03
2023-10-20T09:27:27.540Z,7.13
2023-10-20T09:28:30.257Z,7.13
2023-10-20T09:29:33.093Z,7.13
2023-10-20T09:30:36.597Z,7.14
2023-10-20T09:31:39.513Z,7.11
2023-10-20T09:32:41.741Z,7.09
2023-10-20T09:33:43.981Z,7.10
2023-10-20T09:34:46.062Z,7.11
2023-10-20T09:35:48.153Z,7.09
2023-10-20T09:36:54.173Z,7.09
2023-10-20T09:37:58.564Z,7.08
2023-10-20T09:39:01.504Z,7.09
2023-10-20T09:40:09.187Z,7.09
2023-10-20T09:41:13.841Z,7.11
2023-10-20T09:42:25.369Z,7.10
2023-10-20T09:43:32.895Z,7.09
2023-10-20T09:44:59.939Z,7.12
2023-10-20T09:46:13.740Z,7.13
2023-10-20T09:47:29.232Z,7.19
2023-10-20T09:48:33.956Z,7.21
2023-10-20T09:49:38.164Z,7.23
2023-10-20T09:50:41.831Z,7.24
2023-10-20T09:51:46.868Z,7.20
2023-10-20T09:52:49.392Z,7.12
2023-10-20T09:53:52.378Z,7.06
2023-10-20T09:54:54.853Z,7.02
2023-10-20T09:55:59.545Z,7.00
2023-10-20T09:57:02.355Z,6.97
2023-10-20T09:58:04.788Z,7.00
2023-10-20T09:59:06.862Z,7.03
2023-10-20T10:00:09.811Z,7.06
2023-10-20T10:01:16.722Z,7.05
2023-10-20T10:02:28.321Z,7.03
2023-10-20T10:03:39.582Z,6.99
2023-10-20T10:04:46.298Z,6.96
2023-10-20T10:05:48.484Z,6.87
2023-10-20T10:06:50.557Z,6.82
2023-10-20T10:08:08.242Z,6.82
2023-10-20T10:09:12.515Z,6.81
2023-10-20T10:10:21.968Z,6.80
2023-10-20T10:11:31.608Z,6.80
2023-10-20T10:12:33.558Z,6.77
2023-10-20T10:13:36.578Z,6.76
2023-10-20T10:14:38.948Z,6.77
2023-10-20T10:15:48.040Z,6.77
2023-10-20T10:16:54.838Z,6.79
2023-10-20T10:18:00.779Z,6.75
2023-10-20T10:19:12.603Z,6.78
2023-10-20T10:20:28.603Z,6.77
2023-10-20T10:21:31.433Z,6.77
2023-10-20T10:22:33.616Z,6.81
2023-10-20T10:23:35.728Z,6.82
2023-10-20T10:24:40.512Z,6.83
2023-10-20T10:25:49.282Z,6.88
2023-10-20T10:27:01.372Z,6.91
2023-10-20T10:28:10.526Z,6.92
2023-10-20T10:29:12.594Z,6.90
2023-10-20T10:30:17.126Z,6.86
2023-10-20T10:31:19.429Z,6.82
2023-10-20T10:32:22.991Z,6.81
2023-10-20T10:33:26.196Z,6.83
2023-10-20T10:34:28.327Z,6.82
2023-10-20T10:35:30.670Z,6.81
2023-10-20T10:36:48.861Z,6.81
2023-10-20T10:37:53.056Z,6.79
2023-10-20T10:38:54.990Z,6.81
2023-10-20T10:40:15.306Z,6.81
2023-10-20T10:41:24.936Z,6.83
2023-10-20T10:42:29.100Z,6.81
2023-10-20T10:43:31.778Z,6.88
2023-10-20T10:44:40.602Z,6.82
2023-10-20T10:45:44.343Z,6.82
2023-10-20T10:46:48.742Z,6.83
2023-10-20T10:48:12.377Z,6.87
2023-10-20T10:49:15.440Z,6.86
2023-10-20T10:50:18.424Z,6.84
2023-10-20T10:51:21.423Z,6.85
2023-10-20T10:52:23.537Z,6.84
2023-10-20T10:53:27.533Z,6.86
2023-10-20T10:54:30.748Z,6.85
2023-10-20T10:55:33.067Z,6.85
2023-10-20T10:56:35.911Z,6.83
2023-10-20T10:57:39.816Z,6.81
2023-10-20T10:58:41.867Z,6.82
2023-10-20T10:59:45.682Z,6.78
2023-10-20T11:00:48.238Z,6.75
2023-10-20T11:01:50.339Z,6.73
2023-10-20T11:02:53.845Z,6.70
2023-10-20T11:03:56.596Z,6.66
2023-10-20T11:04:58.941Z,6.62
2023-10-20T11:06:01.096Z,6.60
2023-10-20T11:07:03.354Z,6.59
2023-10-20T11:08:07.549Z,6.57
2023-10-20T11:09:17.408Z,6.56
2023-10-20T11:10:20.140Z,6.55
2023-10-20T11:11:27.024Z,6.58
2023-10-20T11:12:29.197Z,6.56
2023-10-20T11:13:31.371Z,6.55
2023-10-20T11:14:33.394Z,6.54
2023-10-20T11:15:36.661Z,6.54
2023-10-20T11:16:38.918Z,6.55
2023-10-20T11:17:41.360Z,6.57
2023-10-20T11:18:47.726Z,6.58
2023-10-20T11:19:49.955Z,6.63
2023-10-20T11:20:55.401Z,6.69
2023-10-20T11:21:57.447Z,6.69
2023-10-20T11:22:59.511Z,6.66
2023-10-20T11:24:01.582Z,6.65
2023-10-20T11:25:03.887Z,6.62
2023-10-20T11:26:18.775Z,6.63
2023-10-20T11:27:21.256Z,6.60
2023-10-20T11:28:23.849Z,6.61
2023-10-20T11:29:39.824Z,6.62
2023-10-20T11:30:49.418Z,6.61
2023-10-20T11:31:51.463Z,6.62
2023-10-20T11:32:57.403Z,6.61
2023-10-20T11:33:59.643Z,6.61
2023-10-20T11:35:01.710Z,6.63
2023-10-20T11:36:05.741Z,6.64
2023-10-20T11:37:09.266Z,6.65
2023-10-20T11:38:11.282Z,6.63
2023-10-20T11:39:14.315Z,6.62
2023-10-20T11:40:17.314Z,6.62
2023-10-20T11:41:20.372Z,6.68
2023-10-20T11:42:22.539Z,6.66
2023-10-20T11:43:24.621Z,6.66
2023-10-20T11:44:27.650Z,6.65
2023-10-20T11:45:30.176Z,6.66
2023-10-20T11:46:32.228Z,6.66
2023-10-20T11:47:34.894Z,6.66
2023-10-20T11:48:36.859Z,6.65
2023-10-20T11:49:38.995Z,6.65
2023-10-20T11:50:41.113Z,6.62
2023-10-20T11:51:43.292Z,6.61
2023-10-20T11:52:46.329Z,6.61
2023-10-20T11:53:48.395Z,6.59
2023-10-20T11:54:50.673Z,6.60
2023-10-20T11:55:53.399Z,6.60
2023-10-20T11:56:55.519Z,6.57
2023-10-20T11:57:57.611Z,6.56
2023-10-20T11:58:59.723Z,6.56
2023-10-20T12:00:08.536Z,6.55
2023-10-20T12:01:10.455Z,6.56
2023-10-20T12:02:12.530Z,6.54
2023-10-20T12:03:16.723Z,6.57
2023-10-20T12:04:19.453Z,6.62
2023-10-20T12:05:21.533Z,6.62
2023-10-20T12:06:23.646Z,6.65
2023-10-20T12:07:25.612Z,6.67
2023-10-20T12:08:27.852Z,6.69
2023-10-20T12:09:29.867Z,6.71
2023-10-20T12:10:33.056Z,6.75
2023-10-20T12:11:36.579Z,6.79
2023-10-20T12:12:40.277Z,6.85
2023-10-20T12:13:48.097Z,6.87
2023-10-20T12:14:50.198Z,6.89
2023-10-20T12:15:52.571Z,6.89
2023-10-20T12:16:55.391Z,6.92
2023-10-20T12:17:59.316Z,6.92
2023-10-20T12:19:07.364Z,6.93
2023-10-20T12:20:11.136Z,6.95
2023-10-20T12:21:14.645Z,6.94
2023-10-20T12:22:16.705Z,6.95
2023-10-20T12:23:19.010Z,6.96
2023-10-20T12:24:21.487Z,6.94
2023-10-20T12:25:23.607Z,6.92
2023-10-20T12:26:26.435Z,6.93
2023-10-20T12:27:28.770Z,6.95
2023-10-20T12:28:30.874Z,6.96
2023-10-20T12:29:32.932Z,6.96
2023-10-20T12:30:34.867Z,6.93
2023-10-20T12:31:37.190Z,6.91
2023-10-20T12:32:39.444Z,6.85
2023-10-20T12:33:41.580Z,6.82
2023-10-20T12:34:43.591Z,6.78
2023-10-20T12:35:47.138Z,6.76
2023-10-20T12:36:49.924Z,6.73
2023-10-20T12:37:52.133Z,6.73
2023-10-20T12:38:54.081Z,6.72
2023-10-20T12:39:56.139Z,6.72
2023-10-20T12:40:58.110Z,6.70
2023-10-20T12:42:06.666Z,6.68
2023-10-20T12:43:14.721Z,6.66
2023-10-20T12:44:19.890Z,6.65
2023-10-20T12:45:22.044Z,6.63
2023-10-20T12:46:24.054Z,6.63
2023-10-20T12:47:26.328Z,6.63
2023-10-20T12:48:28.592Z,6.63
2023-10-20T12:49:33.125Z,6.62
2023-10-20T12:50:35.451Z,6.61
2023-10-20T12:51:37.572Z,6.59
2023-10-20T12:52:39.715Z,6.56
2023-10-20T12:53:42.083Z,6.54
2023-10-20T12:54:44.301Z,6.51
2023-10-20T12:55:46.229Z,6.52
2023-10-20T12:56:48.303Z,6.52
2023-10-20T12:57:51.086Z,6.50
2023-10-20T12:58:53.172Z,6.46
2023-10-20T12:59:55.409Z,6.44
2023-10-20T13:00:58.369Z,6.40
2023-10-20T13:02:00.295Z,6.38
2023-10-20T13:03:02.547Z,6.37
2023-10-20T13:04:05.974Z,6.38
2023-10-20T13:05:08.563Z,6.39
2023-10-20T13:06:10.749Z,6.40
2023-10-20T13:07:15.039Z,6.37
2023-10-20T13:08:17.610Z,6.37
2023-10-20T13:09:19.786Z,6.36
2023-10-20T13:10:22.222Z,6.36
2023-10-20T13:11:24.274Z,6.36
2023-10-20T13:12:26.386Z,6.35
2023-10-20T13:13:32.327Z,6.34
2023-10-20T13:14:36.169Z,6.36
2023-10-20T13:15:38.240Z,6.39
2023-10-20T13:16:40.757Z,6.37
2023-10-20T13:17:42.948Z,6.37
2023-10-20T13:18:45.107Z,6.37
2023-10-20T13:19:47.476Z,6.37
2023-10-20T13:20:49.625Z,6.35
2023-10-20T13:21:51.979Z,6.35
2023-10-20T13:22:54.007Z,6.35
2023-10-20T13:23:56.609Z,6.35
2023-10-20T13:24:58.543Z,6.35
2023-10-20T13:26:07.201Z,6.34
2023-10-20T13:27:09.440Z,6.31
2023-10-20T13:28:12.404Z,6.31
2023-10-20T13:29:14.846Z,6.31
2023-10-20T13:30:17.011Z,6.31
2023-10-20T13:31:23.127Z,6.29
2023-10-20T13:32:25.666Z,6.28
2023-10-20T13:33:28.122Z,6.28
2023-10-20T13:34:30.348Z,6.28
2023-10-20T13:35:40.623Z,6.28
2023-10-20T13:36:42.552Z,6.31
2023-10-20T13:37:44.592Z,6.28
2023-10-20T13:38:47.033Z,6.28
2023-10-20T13:39:49.879Z,6.27
2023-10-20T13:40:51.987Z,6.27
2023-10-20T13:41:54.035Z,6.26
2023-10-20T13:42:56.090Z,6.28
2023-10-20T13:43:58.132Z,6.29
2023-10-20T13:45:00.248Z,6.28
2023-10-20T13:46:02.992Z,6.28
2023-10-20T13:47:06.091Z,6.28
2023-10-20T13:48:08.282Z,6.28
2023-10-20T13:49:10.632Z,6.29
2023-10-20T13:50:13.709Z,6.27
2023-10-20T13:51:16.630Z,6.27
2023-10-20T13:52:18.601Z,6.26
2023-10-20T13:53:20.761Z,6.26
2023-10-20T13:54:22.917Z,6.26
2023-10-20T13:55:24.958Z,6.25
2023-10-20T13:56:27.942Z,6.25
2023-10-20T13:57:29.933Z,6.26
2023-10-20T13:58:32.665Z,6.25
2023-10-20T13:59:35.208Z,6.25
2023-10-20T14:00:37.323Z,6.25
2023-10-20T14:01:39.613Z,6.25
2023-10-20T14:02:41.726Z,6.23
2023-10-20T14:03:44.098Z,6.21
2023-10-20T14:04:46.320Z,6.21
2023-10-20T14:05:57.903Z,6.18
2023-10-20T14:07:00.279Z,6.17
2023-10-20T14:08:03.570Z,6.16
2023-10-20T14:09:06.142Z,6.14
2023-10-20T14:10:08.640Z,6.14
2023-10-20T14:11:12.141Z,6.13
2023-10-20T14:12:15.895Z,6.12
2023-10-20T14:13:18.448Z,6.10